sensor_id;sensor_type;location;lat;lon;timestamp;pressure;altitude;pressure_sealevel;temperature;humidity
60642;BME280;46837;52.446;-1.930;2023-02-13T00:00:10;102077.40;;;7.57;71.18
60642;BME280;46837;52.446;-1.930;2023-02-13T00:01:09;102078.37;;;7.58;71.14
60642;BME280;46837;52.446;-1.930;2023-02-13T00:02:09;102078.87;;;7.55;71.23
60642;BME280;46837;52.446;-1.930;2023-02-13T00:03:09;102077.45;;;7.54;71.36
60642;BME280;46837;52.446;-1.930;2023-02-13T00:04:09;102078.78;;;7.49;71.61
60642;BME280;46837;52.446;-1.930;2023-02-13T00:05:09;102079.17;;;7.52;71.42
60642;BME280;46837;52.446;-1.930;2023-02-13T00:06:09;102074.32;;;7.51;71.57
60642;BME280;46837;52.446;-1.930;2023-02-13T00:07:09;102078.39;;;7.54;71.53
60642;BME280;46837;52.446;-1.930;2023-02-13T00:08:09;102078.39;;;7.52;71.55
60642;BME280;46837;52.446;-1.930;2023-02-13T00:09:09;102076.90;;;7.49;71.78
60642;BME280;46837;52.446;-1.930;2023-02-13T00:10:09;102073.63;;;7.49;71.82
60642;BME280;46837;52.446;-1.930;2023-02-13T00:11:09;102075.73;;;7.45;71.89
60642;BME280;46837;52.446;-1.930;2023-02-13T00:12:09;102073.43;;;7.48;71.86
60642;BME280;46837;52.446;-1.930;2023-02-13T00:13:09;102073.59;;;7.50;71.82
60642;BME280;46837;52.446;-1.930;2023-02-13T00:14:09;102075.66;;;7.53;71.72
60642;BME280;46837;52.446;-1.930;2023-02-13T00:15:09;102074.12;;;7.48;71.88
60642;BME280;46837;52.446;-1.930;2023-02-13T00:16:09;102074.48;;;7.51;71.84
60642;BME280;46837;52.446;-1.930;2023-02-13T00:17:09;102074.07;;;7.54;71.83
60642;BME280;46837;52.446;-1.930;2023-02-13T00:18:09;102075.97;;;7.57;71.77
60642;BME280;46837;52.446;-1.930;2023-02-13T00:19:09;102078.05;;;7.57;71.75
60642;BME280;46837;52.446;-1.930;2023-02-13T00:20:09;102080.00;;;7.58;71.78
60642;BME280;46837;52.446;-1.930;2023-02-13T00:21:10;102078.95;;;7.57;71.89
60642;BME280;46837;52.446;-1.930;2023-02-13T00:22:09;102078.24;;;7.61;71.76
60642;BME280;46837;52.446;-1.930;2023-02-13T00:23:09;102083.69;;;7.66;72.27
60642;BME280;46837;52.446;-1.930;2023-02-13T00:24:09;102085.02;;;7.59;72.21
60642;BME280;46837;52.446;-1.930;2023-02-13T00:25:09;102086.55;;;7.53;72.39
60642;BME280;46837;52.446;-1.930;2023-02-13T00:26:12;102087.82;;;7.52;72.40
60642;BME280;46837;52.446;-1.930;2023-02-13T00:27:09;102086.40;;;7.49;72.47
60642;BME280;46837;52.446;-1.930;2023-02-13T00:28:09;102085.84;;;7.45;72.49
60642;BME280;46837;52.446;-1.930;2023-02-13T00:29:09;102089.47;;;7.47;72.42
60642;BME280;46837;52.446;-1.930;2023-02-13T00:30:09;102087.34;;;7.48;72.33
60642;BME280;46837;52.446;-1.930;2023-02-13T00:31:10;102083.84;;;7.48;72.22
60642;BME280;46837;52.446;-1.930;2023-02-13T00:32:09;102088.33;;;7.45;72.40
60642;BME280;46837;52.446;-1.930;2023-02-13T00:33:09;102084.29;;;7.46;72.35
60642;BME280;46837;52.446;-1.930;2023-02-13T00:34:09;102083.48;;;7.47;72.39
60642;BME280;46837;52.446;-1.930;2023-02-13T00:35:09;102082.45;;;7.50;72.35
60642;BME280;46837;52.446;-1.930;2023-02-13T00:36:16;102080.86;;;7.49;72.35
60642;BME280;46837;52.446;-1.930;2023-02-13T00:37:09;102077.90;;;7.54;72.24
60642;BME280;46837;52.446;-1.930;2023-02-13T00:38:09;102078.82;;;7.59;72.08
60642;BME280;46837;52.446;-1.930;2023-02-13T00:39:10;102077.89;;;7.57;72.01
60642;BME280;46837;52.446;-1.930;2023-02-13T00:40:09;102077.85;;;7.56;72.09
60642;BME280;46837;52.446;-1.930;2023-02-13T00:41:09;102082.76;;;7.53;72.23
60642;BME280;46837;52.446;-1.930;2023-02-13T00:42:09;102081.41;;;7.43;72.63
60642;BME280;46837;52.446;-1.930;2023-02-13T00:43:09;102080.09;;;7.45;72.66
60642;BME280;46837;52.446;-1.930;2023-02-13T00:44:09;102075.28;;;7.45;72.71
60642;BME280;46837;52.446;-1.930;2023-02-13T00:45:09;102073.52;;;7.46;72.61
60642;BME280;46837;52.446;-1.930;2023-02-13T00:46:09;102072.95;;;7.46;72.70
60642;BME280;46837;52.446;-1.930;2023-02-13T00:47:09;102072.16;;;7.48;72.69
60642;BME280;46837;52.446;-1.930;2023-02-13T00:48:09;102073.18;;;7.49;72.64
60642;BME280;46837;52.446;-1.930;2023-02-13T00:49:09;102073.45;;;7.42;72.92
60642;BME280;46837;52.446;-1.930;2023-02-13T00:50:09;102066.03;;;7.43;73.00
60642;BME280;46837;52.446;-1.930;2023-02-13T00:51:09;102061.59;;;7.38;72.98
60642;BME280;46837;52.446;-1.930;2023-02-13T00:52:09;102058.84;;;7.32;73.18
60642;BME280;46837;52.446;-1.930;2023-02-13T00:53:09;102062.66;;;7.37;73.20
60642;BME280;46837;52.446;-1.930;2023-02-13T00:54:09;102058.66;;;7.37;73.13
60642;BME280;46837;52.446;-1.930;2023-02-13T00:55:09;102062.29;;;7.39;72.98
60642;BME280;46837;52.446;-1.930;2023-02-13T00:56:09;102056.20;;;7.30;73.26
60642;BME280;46837;52.446;-1.930;2023-02-13T00:57:09;102062.09;;;7.34;73.31
60642;BME280;46837;52.446;-1.930;2023-02-13T00:58:09;102059.48;;;7.35;73.16
60642;BME280;46837;52.446;-1.930;2023-02-13T00:59:09;102058.90;;;7.39;73.19
60642;BME280;46837;52.446;-1.930;2023-02-13T01:00:09;102061.42;;;7.44;72.97
60642;BME280;46837;52.446;-1.930;2023-02-13T01:01:09;102059.72;;;7.49;72.85
60642;BME280;46837;52.446;-1.930;2023-02-13T01:02:09;102060.74;;;7.48;72.93
60642;BME280;46837;52.446;-1.930;2023-02-13T01:03:09;102058.39;;;7.45;72.90
60642;BME280;46837;52.446;-1.930;2023-02-13T01:04:09;102054.94;;;7.40;73.13
60642;BME280;46837;52.446;-1.930;2023-02-13T01:05:09;102054.48;;;7.41;73.17
60642;BME280;46837;52.446;-1.930;2023-02-13T01:06:09;102054.32;;;7.42;73.10
60642;BME280;46837;52.446;-1.930;2023-02-13T01:07:09;102055.22;;;7.41;73.19
60642;BME280;46837;52.446;-1.930;2023-02-13T01:08:09;102055.75;;;7.41;73.25
60642;BME280;46837;52.446;-1.930;2023-02-13T01:09:09;102055.04;;;7.34;73.51
60642;BME280;46837;52.446;-1.930;2023-02-13T01:10:09;102052.57;;;7.40;73.44
60642;BME280;46837;52.446;-1.930;2023-02-13T01:11:09;102050.80;;;7.34;73.54
60642;BME280;46837;52.446;-1.930;2023-02-13T01:12:09;102050.71;;;7.37;73.50
60642;BME280;46837;52.446;-1.930;2023-02-13T01:13:09;102051.42;;;7.42;73.39
60642;BME280;46837;52.446;-1.930;2023-02-13T01:14:09;102048.27;;;7.45;73.32
60642;BME280;46837;52.446;-1.930;2023-02-13T01:15:09;102046.17;;;7.50;73.12
60642;BME280;46837;52.446;-1.930;2023-02-13T01:16:09;102044.64;;;7.46;73.30
60642;BME280;46837;52.446;-1.930;2023-02-13T01:17:09;102047.12;;;7.47;73.37
60642;BME280;46837;52.446;-1.930;2023-02-13T01:18:10;102043.18;;;7.52;73.26
60642;BME280;46837;52.446;-1.930;2023-02-13T01:19:09;102043.31;;;7.51;73.20
60642;BME280;46837;52.446;-1.930;2023-02-13T01:20:10;102040.25;;;7.51;73.16
60642;BME280;46837;52.446;-1.930;2023-02-13T01:21:16;102044.73;;;7.54;73.17
60642;BME280;46837;52.446;-1.930;2023-02-13T01:22:09;102039.17;;;7.46;73.26
60642;BME280;46837;52.446;-1.930;2023-02-13T01:23:09;102041.99;;;7.44;73.37
60642;BME280;46837;52.446;-1.930;2023-02-13T01:24:09;102038.60;;;7.47;73.30
60642;BME280;46837;52.446;-1.930;2023-02-13T01:25:09;102041.09;;;7.45;73.27
60642;BME280;46837;52.446;-1.930;2023-02-13T01:26:09;102041.67;;;7.43;73.33
60642;BME280;46837;52.446;-1.930;2023-02-13T01:27:09;102041.69;;;7.39;73.56
60642;BME280;46837;52.446;-1.930;2023-02-13T01:28:09;102041.06;;;7.41;73.40
60642;BME280;46837;52.446;-1.930;2023-02-13T01:29:12;102038.29;;;7.41;73.52
60642;BME280;46837;52.446;-1.930;2023-02-13T01:30:09;102037.01;;;7.45;73.57
60642;BME280;46837;52.446;-1.930;2023-02-13T01:31:09;102035.29;;;7.47;73.45
60642;BME280;46837;52.446;-1.930;2023-02-13T01:32:09;102037.37;;;7.48;73.35
60642;BME280;46837;52.446;-1.930;2023-02-13T01:33:10;102033.88;;;7.43;73.63
60642;BME280;46837;52.446;-1.930;2023-02-13T01:34:09;102038.41;;;7.44;73.69
60642;BME280;46837;52.446;-1.930;2023-02-13T01:35:09;102034.60;;;7.45;73.55
60642;BME280;46837;52.446;-1.930;2023-02-13T01:36:09;102031.05;;;7.45;73.63
60642;BME280;46837;52.446;-1.930;2023-02-13T01:37:09;102030.56;;;7.47;73.52
60642;BME280;46837;52.446;-1.930;2023-02-13T01:38:09;102025.43;;;7.52;73.38
60642;BME280;46837;52.446;-1.930;2023-02-13T01:39:11;102026.73;;;7.56;73.23
60642;BME280;46837;52.446;-1.930;2023-02-13T01:40:10;102025.06;;;7.53;73.20
60642;BME280;46837;52.446;-1.930;2023-02-13T01:41:09;102023.76;;;7.54;73.22
60642;BME280;46837;52.446;-1.930;2023-02-13T01:42:14;102026.15;;;7.57;73.15
60642;BME280;46837;52.446;-1.930;2023-02-13T01:43:09;102025.39;;;7.54;73.16
60642;BME280;46837;52.446;-1.930;2023-02-13T01:46:09;102023.88;;;7.45;73.29
60642;BME280;46837;52.446;-1.930;2023-02-13T01:47:09;102022.92;;;7.50;73.27
60642;BME280;46837;52.446;-1.930;2023-02-13T01:48:15;102017.12;;;7.49;73.20
60642;BME280;46837;52.446;-1.930;2023-02-13T01:50:12;102019.47;;;7.45;73.21
60642;BME280;46837;52.446;-1.930;2023-02-13T01:51:11;102023.95;;;7.38;73.51
60642;BME280;46837;52.446;-1.930;2023-02-13T01:52:09;102023.04;;;7.39;73.51
60642;BME280;46837;52.446;-1.930;2023-02-13T01:54:12;102022.20;;;7.47;73.31
60642;BME280;46837;52.446;-1.930;2023-02-13T01:55:09;102022.73;;;7.46;73.31
60642;BME280;46837;52.446;-1.930;2023-02-13T01:57:13;102023.66;;;7.47;73.43
60642;BME280;46837;52.446;-1.930;2023-02-13T01:58:10;102021.83;;;7.47;73.43
60642;BME280;46837;52.446;-1.930;2023-02-13T01:59:12;102022.63;;;7.50;73.49
60642;BME280;46837;52.446;-1.930;2023-02-13T02:00:10;102021.61;;;7.50;73.40
60642;BME280;46837;52.446;-1.930;2023-02-13T02:01:09;102025.49;;;7.50;73.40
60642;BME280;46837;52.446;-1.930;2023-02-13T02:02:09;102025.76;;;7.52;73.40
60642;BME280;46837;52.446;-1.930;2023-02-13T02:03:14;102024.27;;;7.49;73.39
60642;BME280;46837;52.446;-1.930;2023-02-13T02:04:14;102027.74;;;7.48;73.55
60642;BME280;46837;52.446;-1.930;2023-02-13T02:05:09;102027.04;;;7.51;73.49
60642;BME280;46837;52.446;-1.930;2023-02-13T02:06:11;102028.61;;;7.54;73.33
60642;BME280;46837;52.446;-1.930;2023-02-13T02:07:14;102028.07;;;7.55;73.26
60642;BME280;46837;52.446;-1.930;2023-02-13T02:08:10;102025.76;;;7.52;73.29
60642;BME280;46837;52.446;-1.930;2023-02-13T02:09:16;102019.82;;;7.48;73.49
60642;BME280;46837;52.446;-1.930;2023-02-13T02:10:10;102024.51;;;7.49;73.39
60642;BME280;46837;52.446;-1.930;2023-02-13T02:13:16;102022.38;;;7.42;73.67
60642;BME280;46837;52.446;-1.930;2023-02-13T02:14:09;102022.62;;;7.41;73.69
60642;BME280;46837;52.446;-1.930;2023-02-13T02:15:09;102024.31;;;7.39;73.90
60642;BME280;46837;52.446;-1.930;2023-02-13T02:16:09;102022.09;;;7.44;73.66
60642;BME280;46837;52.446;-1.930;2023-02-13T02:17:09;102019.92;;;7.44;73.68
60642;BME280;46837;52.446;-1.930;2023-02-13T02:18:19;102014.59;;;7.43;73.82
60642;BME280;46837;52.446;-1.930;2023-02-13T02:20:23;102014.86;;;7.45;73.65
60642;BME280;46837;52.446;-1.930;2023-02-13T02:24:16;102015.63;;;7.46;73.66
60642;BME280;46837;52.446;-1.930;2023-02-13T02:30:21;102019.22;;;7.46;73.71
60642;BME280;46837;52.446;-1.930;2023-02-13T02:32:19;102009.93;;;7.42;73.70
60642;BME280;46837;52.446;-1.930;2023-02-13T02:33:20;102010.14;;;7.41;73.71
60642;BME280;46837;52.446;-1.930;2023-02-13T02:34:22;102008.74;;;7.46;73.59
60642;BME280;46837;52.446;-1.930;2023-02-13T02:36:23;102008.38;;;7.44;73.57
60642;BME280;46837;52.446;-1.930;2023-02-13T02:42:18;102005.51;;;7.37;73.96
60642;BME280;46837;52.446;-1.930;2023-02-13T02:43:17;102004.27;;;7.42;73.81
60642;BME280;46837;52.446;-1.930;2023-02-13T02:45:18;102002.46;;;7.45;73.64
60642;BME280;46837;52.446;-1.930;2023-02-13T02:49:15;102005.64;;;7.53;73.39
60642;BME280;46837;52.446;-1.930;2023-02-13T02:50:22;102008.08;;;7.56;73.45
60642;BME280;46837;52.446;-1.930;2023-02-13T02:52:17;102008.25;;;7.54;73.41
60642;BME280;46837;52.446;-1.930;2023-02-13T02:53:22;102007.85;;;7.53;73.42
60642;BME280;46837;52.446;-1.930;2023-02-13T02:54:21;102006.20;;;7.46;73.65
60642;BME280;46837;52.446;-1.930;2023-02-13T02:55:24;102005.99;;;7.49;73.67
60642;BME280;46837;52.446;-1.930;2023-02-13T02:56:17;102006.52;;;7.51;73.66
60642;BME280;46837;52.446;-1.930;2023-02-13T02:57:14;102002.13;;;7.45;73.68
60642;BME280;46837;52.446;-1.930;2023-02-13T02:59:14;102003.80;;;7.35;74.10
60642;BME280;46837;52.446;-1.930;2023-02-13T03:00:14;102000.96;;;7.41;74.07
60642;BME280;46837;52.446;-1.930;2023-02-13T03:01:15;102001.26;;;7.38;74.11
60642;BME280;46837;52.446;-1.930;2023-02-13T03:02:13;101997.63;;;7.37;74.15
60642;BME280;46837;52.446;-1.930;2023-02-13T03:03:18;101995.51;;;7.37;74.18
60642;BME280;46837;52.446;-1.930;2023-02-13T03:05:21;101994.32;;;7.40;74.04
60642;BME280;46837;52.446;-1.930;2023-02-13T03:06:25;101995.79;;;7.40;74.13
60642;BME280;46837;52.446;-1.930;2023-02-13T03:07:09;101995.40;;;7.46;73.99
60642;BME280;46837;52.446;-1.930;2023-02-13T03:08:09;101995.50;;;7.40;74.11
60642;BME280;46837;52.446;-1.930;2023-02-13T03:09:19;101994.46;;;7.36;74.22
60642;BME280;46837;52.446;-1.930;2023-02-13T03:10:19;101994.99;;;7.35;74.35
60642;BME280;46837;52.446;-1.930;2023-02-13T03:11:13;101995.97;;;7.35;74.50
60642;BME280;46837;52.446;-1.930;2023-02-13T03:12:13;101996.22;;;7.34;74.49
60642;BME280;46837;52.446;-1.930;2023-02-13T03:13:15;101992.96;;;7.35;74.56
60642;BME280;46837;52.446;-1.930;2023-02-13T03:14:10;101997.72;;;7.37;74.47
60642;BME280;46837;52.446;-1.930;2023-02-13T03:15:09;101995.57;;;7.35;74.51
60642;BME280;46837;52.446;-1.930;2023-02-13T03:16:16;101993.81;;;7.37;74.52
60642;BME280;46837;52.446;-1.930;2023-02-13T03:17:14;101997.40;;;7.35;74.58
60642;BME280;46837;52.446;-1.930;2023-02-13T03:18:13;101995.81;;;7.35;74.56
60642;BME280;46837;52.446;-1.930;2023-02-13T03:20:21;102003.22;;;7.38;74.55
60642;BME280;46837;52.446;-1.930;2023-02-13T03:21:20;101999.47;;;7.38;74.51
60642;BME280;46837;52.446;-1.930;2023-02-13T03:27:16;101994.50;;;7.47;74.29
60642;BME280;46837;52.446;-1.930;2023-02-13T03:28:19;101994.11;;;7.43;74.47
60642;BME280;46837;52.446;-1.930;2023-02-13T03:34:14;101989.30;;;7.48;74.35
60642;BME280;46837;52.446;-1.930;2023-02-13T03:36:27;101988.32;;;7.42;74.59
60642;BME280;46837;52.446;-1.930;2023-02-13T03:37:14;101983.21;;;7.36;74.73
60642;BME280;46837;52.446;-1.930;2023-02-13T03:40:17;101982.89;;;7.33;74.96
60642;BME280;46837;52.446;-1.930;2023-02-13T03:41:21;101984.99;;;7.27;75.13
60642;BME280;46837;52.446;-1.930;2023-02-13T03:42:14;101982.26;;;7.27;75.15
60642;BME280;46837;52.446;-1.930;2023-02-13T03:43:14;101979.09;;;7.26;75.20
60642;BME280;46837;52.446;-1.930;2023-02-13T03:45:15;101979.02;;;7.30;75.07
60642;BME280;46837;52.446;-1.930;2023-02-13T03:46:09;101978.75;;;7.28;75.20
60642;BME280;46837;52.446;-1.930;2023-02-13T03:47:09;101982.93;;;7.32;75.09
60642;BME280;46837;52.446;-1.930;2023-02-13T03:48:11;101983.95;;;7.33;75.06
60642;BME280;46837;52.446;-1.930;2023-02-13T03:49:20;101984.41;;;7.30;75.13
60642;BME280;46837;52.446;-1.930;2023-02-13T03:50:09;101981.64;;;7.30;75.29
60642;BME280;46837;52.446;-1.930;2023-02-13T03:51:11;101983.41;;;7.36;75.09
60642;BME280;46837;52.446;-1.930;2023-02-13T03:52:18;101978.11;;;7.34;75.06
60642;BME280;46837;52.446;-1.930;2023-02-13T03:53:10;101977.52;;;7.38;75.09
60642;BME280;46837;52.446;-1.930;2023-02-13T03:55:18;101982.59;;;7.44;74.85
60642;BME280;46837;52.446;-1.930;2023-02-13T03:56:13;101982.14;;;7.47;74.77
60642;BME280;46837;52.446;-1.930;2023-02-13T03:57:15;101983.28;;;7.47;74.74
60642;BME280;46837;52.446;-1.930;2023-02-13T03:58:18;101985.79;;;7.49;74.78
60642;BME280;46837;52.446;-1.930;2023-02-13T03:59:21;101982.49;;;7.49;74.74
60642;BME280;46837;52.446;-1.930;2023-02-13T04:00:10;101980.06;;;7.45;74.75
60642;BME280;46837;52.446;-1.930;2023-02-13T04:01:09;101978.86;;;7.40;75.04
60642;BME280;46837;52.446;-1.930;2023-02-13T04:02:13;101979.03;;;7.39;75.07
60642;BME280;46837;52.446;-1.930;2023-02-13T04:03:17;101976.52;;;7.42;75.05
60642;BME280;46837;52.446;-1.930;2023-02-13T04:04:22;101978.64;;;7.43;75.02
60642;BME280;46837;52.446;-1.930;2023-02-13T04:05:13;101977.48;;;7.46;74.99
60642;BME280;46837;52.446;-1.930;2023-02-13T04:06:14;101976.00;;;7.41;75.21
60642;BME280;46837;52.446;-1.930;2023-02-13T04:07:13;101977.73;;;7.45;75.11
60642;BME280;46837;52.446;-1.930;2023-02-13T04:08:09;101980.41;;;7.48;75.01
60642;BME280;46837;52.446;-1.930;2023-02-13T04:09:09;101983.30;;;7.50;74.86
60642;BME280;46837;52.446;-1.930;2023-02-13T04:10:13;101981.96;;;7.49;74.96
60642;BME280;46837;52.446;-1.930;2023-02-13T04:11:17;101978.96;;;7.52;74.88
60642;BME280;46837;52.446;-1.930;2023-02-13T04:13:17;101975.43;;;7.41;75.27
60642;BME280;46837;52.446;-1.930;2023-02-13T04:15:17;101980.26;;;7.45;75.26
60642;BME280;46837;52.446;-1.930;2023-02-13T04:17:16;101980.67;;;7.46;75.06
60642;BME280;46837;52.446;-1.930;2023-02-13T04:18:16;101976.73;;;7.42;75.29
60642;BME280;46837;52.446;-1.930;2023-02-13T04:19:09;101974.14;;;7.46;75.29
60642;BME280;46837;52.446;-1.930;2023-02-13T04:20:09;101973.72;;;7.48;75.15
60642;BME280;46837;52.446;-1.930;2023-02-13T04:21:09;101976.60;;;7.44;75.22
60642;BME280;46837;52.446;-1.930;2023-02-13T04:22:10;101971.07;;;7.39;75.37
60642;BME280;46837;52.446;-1.930;2023-02-13T04:23:09;101970.22;;;7.38;75.44
60642;BME280;46837;52.446;-1.930;2023-02-13T04:24:09;101970.68;;;7.35;75.62
60642;BME280;46837;52.446;-1.930;2023-02-13T04:25:09;101973.58;;;7.35;75.60
60642;BME280;46837;52.446;-1.930;2023-02-13T04:26:14;101971.09;;;7.35;75.72
60642;BME280;46837;52.446;-1.930;2023-02-13T04:27:11;101972.56;;;7.34;75.70
60642;BME280;46837;52.446;-1.930;2023-02-13T04:28:09;101971.86;;;7.36;75.66
60642;BME280;46837;52.446;-1.930;2023-02-13T04:29:09;101970.03;;;7.36;75.66
60642;BME280;46837;52.446;-1.930;2023-02-13T04:30:09;101963.70;;;7.36;75.66
60642;BME280;46837;52.446;-1.930;2023-02-13T04:31:09;101968.20;;;7.42;75.59
60642;BME280;46837;52.446;-1.930;2023-02-13T04:32:09;101967.01;;;7.45;75.35
60642;BME280;46837;52.446;-1.930;2023-02-13T04:33:09;101968.89;;;7.44;75.36
60642;BME280;46837;52.446;-1.930;2023-02-13T04:34:09;101963.71;;;7.43;75.34
60642;BME280;46837;52.446;-1.930;2023-02-13T04:35:09;101960.23;;;7.29;75.69
60642;BME280;46837;52.446;-1.930;2023-02-13T04:36:09;101954.79;;;7.25;76.08
60642;BME280;46837;52.446;-1.930;2023-02-13T04:37:09;101957.51;;;7.25;76.15
60642;BME280;46837;52.446;-1.930;2023-02-13T04:38:09;101958.57;;;7.27;76.00
60642;BME280;46837;52.446;-1.930;2023-02-13T04:39:09;101958.61;;;7.27;75.96
60642;BME280;46837;52.446;-1.930;2023-02-13T04:40:09;101958.03;;;7.27;75.97
60642;BME280;46837;52.446;-1.930;2023-02-13T04:41:09;101958.06;;;7.31;75.94
60642;BME280;46837;52.446;-1.930;2023-02-13T04:42:09;101955.82;;;7.30;75.83
60642;BME280;46837;52.446;-1.930;2023-02-13T04:43:09;101960.08;;;7.35;75.88
60642;BME280;46837;52.446;-1.930;2023-02-13T04:44:09;101961.14;;;7.36;75.73
60642;BME280;46837;52.446;-1.930;2023-02-13T04:45:09;101963.98;;;7.38;75.69
60642;BME280;46837;52.446;-1.930;2023-02-13T04:46:09;101964.71;;;7.40;75.56
60642;BME280;46837;52.446;-1.930;2023-02-13T04:47:09;101961.78;;;7.38;75.65
60642;BME280;46837;52.446;-1.930;2023-02-13T04:48:09;101962.63;;;7.39;75.57
60642;BME280;46837;52.446;-1.930;2023-02-13T04:49:09;101958.39;;;7.39;75.49
60642;BME280;46837;52.446;-1.930;2023-02-13T04:50:09;101959.24;;;7.40;75.54
60642;BME280;46837;52.446;-1.930;2023-02-13T04:51:09;101959.76;;;7.41;75.53
60642;BME280;46837;52.446;-1.930;2023-02-13T04:52:09;101959.44;;;7.41;75.55
60642;BME280;46837;52.446;-1.930;2023-02-13T04:53:09;101955.94;;;7.39;75.61
60642;BME280;46837;52.446;-1.930;2023-02-13T04:54:09;101961.61;;;7.38;75.70
60642;BME280;46837;52.446;-1.930;2023-02-13T04:55:09;101961.25;;;7.38;75.69
60642;BME280;46837;52.446;-1.930;2023-02-13T04:56:09;101964.00;;;7.43;75.57
60642;BME280;46837;52.446;-1.930;2023-02-13T04:57:09;101965.95;;;7.44;75.57
60642;BME280;46837;52.446;-1.930;2023-02-13T04:58:09;101965.11;;;7.41;75.58
60642;BME280;46837;52.446;-1.930;2023-02-13T04:59:09;101966.37;;;7.43;75.56
60642;BME280;46837;52.446;-1.930;2023-02-13T05:00:09;101967.10;;;7.44;75.50
60642;BME280;46837;52.446;-1.930;2023-02-13T05:01:14;101964.62;;;7.42;75.49
60642;BME280;46837;52.446;-1.930;2023-02-13T05:02:09;101964.78;;;7.41;75.62
60642;BME280;46837;52.446;-1.930;2023-02-13T05:03:10;101965.71;;;7.41;75.60
60642;BME280;46837;52.446;-1.930;2023-02-13T05:04:09;101963.18;;;7.34;75.68
60642;BME280;46837;52.446;-1.930;2023-02-13T05:05:09;101966.03;;;7.37;75.70
60642;BME280;46837;52.446;-1.930;2023-02-13T05:06:09;101964.09;;;7.32;75.82
60642;BME280;46837;52.446;-1.930;2023-02-13T05:07:09;101966.66;;;7.33;75.78
60642;BME280;46837;52.446;-1.930;2023-02-13T05:08:09;101967.59;;;7.26;75.88
60642;BME280;46837;52.446;-1.930;2023-02-13T05:09:09;101967.58;;;7.27;75.94
60642;BME280;46837;52.446;-1.930;2023-02-13T05:10:09;101967.50;;;7.27;75.97
60642;BME280;46837;52.446;-1.930;2023-02-13T05:11:09;101964.09;;;7.33;75.76
60642;BME280;46837;52.446;-1.930;2023-02-13T05:12:09;101967.74;;;7.27;75.88
60642;BME280;46837;52.446;-1.930;2023-02-13T05:13:09;101964.10;;;7.31;75.87
60642;BME280;46837;52.446;-1.930;2023-02-13T05:14:09;101967.15;;;7.31;75.76
60642;BME280;46837;52.446;-1.930;2023-02-13T05:15:09;101963.95;;;7.27;75.90
60642;BME280;46837;52.446;-1.930;2023-02-13T05:16:09;101966.66;;;7.33;75.76
60642;BME280;46837;52.446;-1.930;2023-02-13T05:17:09;101967.23;;;7.31;75.75
60642;BME280;46837;52.446;-1.930;2023-02-13T05:18:09;101964.42;;;7.32;75.66
60642;BME280;46837;52.446;-1.930;2023-02-13T05:19:09;101963.82;;;7.28;75.73
60642;BME280;46837;52.446;-1.930;2023-02-13T05:20:09;101961.79;;;7.26;75.78
60642;BME280;46837;52.446;-1.930;2023-02-13T05:21:13;101956.41;;;7.26;75.82
60642;BME280;46837;52.446;-1.930;2023-02-13T05:22:13;101958.38;;;7.23;75.95
60642;BME280;46837;52.446;-1.930;2023-02-13T05:23:13;101957.64;;;7.24;75.80
60642;BME280;46837;52.446;-1.930;2023-02-13T05:24:09;101957.64;;;7.26;75.85
60642;BME280;46837;52.446;-1.930;2023-02-13T05:25:09;101963.06;;;7.25;75.89
60642;BME280;46837;52.446;-1.930;2023-02-13T05:26:09;101962.60;;;7.29;75.85
60642;BME280;46837;52.446;-1.930;2023-02-13T05:27:09;101962.87;;;7.31;75.80
60642;BME280;46837;52.446;-1.930;2023-02-13T05:28:13;101965.07;;;7.31;75.64
60642;BME280;46837;52.446;-1.930;2023-02-13T05:29:13;101962.53;;;7.25;75.78
60642;BME280;46837;52.446;-1.930;2023-02-13T05:30:09;101958.06;;;7.23;75.90
60642;BME280;46837;52.446;-1.930;2023-02-13T05:31:09;101960.40;;;7.27;75.81
60642;BME280;46837;52.446;-1.930;2023-02-13T05:32:09;101957.41;;;7.29;75.78
60642;BME280;46837;52.446;-1.930;2023-02-13T05:33:09;101959.91;;;7.28;75.74
60642;BME280;46837;52.446;-1.930;2023-02-13T05:34:09;101963.77;;;7.33;75.66
60642;BME280;46837;52.446;-1.930;2023-02-13T05:35:09;101962.36;;;7.27;75.51
60642;BME280;46837;52.446;-1.930;2023-02-13T05:36:09;101966.72;;;7.27;75.71
60642;BME280;46837;52.446;-1.930;2023-02-13T05:37:09;101962.93;;;7.19;75.91
60642;BME280;46837;52.446;-1.930;2023-02-13T05:38:09;101959.61;;;7.22;75.90
60642;BME280;46837;52.446;-1.930;2023-02-13T05:39:09;101959.03;;;7.24;75.73
60642;BME280;46837;52.446;-1.930;2023-02-13T05:40:09;101958.26;;;7.23;75.75
60642;BME280;46837;52.446;-1.930;2023-02-13T05:41:09;101961.41;;;7.20;75.85
60642;BME280;46837;52.446;-1.930;2023-02-13T05:42:09;101962.33;;;7.15;75.83
60642;BME280;46837;52.446;-1.930;2023-02-13T05:43:09;101960.68;;;7.17;75.92
60642;BME280;46837;52.446;-1.930;2023-02-13T05:44:09;101958.78;;;7.15;75.88
60642;BME280;46837;52.446;-1.930;2023-02-13T05:45:09;101958.26;;;7.12;75.96
60642;BME280;46837;52.446;-1.930;2023-02-13T05:46:09;101957.22;;;7.07;76.14
60642;BME280;46837;52.446;-1.930;2023-02-13T05:47:09;101958.56;;;7.09;76.12
60642;BME280;46837;52.446;-1.930;2023-02-13T05:48:09;101958.89;;;7.09;76.13
60642;BME280;46837;52.446;-1.930;2023-02-13T05:49:09;101956.78;;;7.04;76.24
60642;BME280;46837;52.446;-1.930;2023-02-13T05:50:09;101959.62;;;7.08;76.14
60642;BME280;46837;52.446;-1.930;2023-02-13T05:51:09;101955.29;;;7.09;76.01
60642;BME280;46837;52.446;-1.930;2023-02-13T05:52:09;101951.77;;;7.14;75.94
60642;BME280;46837;52.446;-1.930;2023-02-13T05:53:09;101956.34;;;7.13;75.87
60642;BME280;46837;52.446;-1.930;2023-02-13T05:54:09;101958.27;;;7.10;76.01
60642;BME280;46837;52.446;-1.930;2023-02-13T05:55:09;101957.91;;;7.09;76.10
60642;BME280;46837;52.446;-1.930;2023-02-13T05:56:09;101956.56;;;7.09;76.01
60642;BME280;46837;52.446;-1.930;2023-02-13T05:57:09;101961.27;;;7.14;76.05
60642;BME280;46837;52.446;-1.930;2023-02-13T05:58:09;101963.86;;;7.20;75.86
60642;BME280;46837;52.446;-1.930;2023-02-13T05:59:09;101964.26;;;7.20;75.70
60642;BME280;46837;52.446;-1.930;2023-02-13T06:00:09;101964.52;;;7.18;75.85
60642;BME280;46837;52.446;-1.930;2023-02-13T06:01:09;101959.71;;;7.17;75.81
60642;BME280;46837;52.446;-1.930;2023-02-13T06:02:09;101961.62;;;7.07;75.95